Time;durP1;ratioP1;P1;durP2;ratioP2;P2;SDS_P1;SDS_P2;PMS_P1;PMS_P2;Temp;Humidity;BMP_temperature;BMP_pressure;BME280_temperature;BME280_humidity;BME280_pressure;Samples;Min_cycle;Max_cycle;Signal;HPM_P1;HPM_P2
2022/12/01 00:00:40;;;;;;;84.35;39.58;;;6.60;99.90;;;;;;5052944;28;20515;-53
2022/12/01 00:03:06;;;;;;;92.10;40.47;;;6.70;99.90;;;;;;5035145;28;20654;-54
2022/12/01 00:05:32;;;;;;;85.38;41.22;;;6.50;99.90;;;;;;5052926;28;20433;-52
2022/12/01 00:07:58;;;;;;;85.22;39.45;;;6.60;99.90;;;;;;5052729;28;20044;-51
2022/12/01 00:10:24;;;;;;;86.75;40.28;;;6.40;99.90;;;;;;5052593;28;20116;-52
2022/12/01 00:12:58;;;;;;;82.30;37.45;;;6.40;99.90;;;;;;5052520;28;20033;-52
2022/12/01 00:15:30;;;;;;;83.15;38.20;;;6.60;99.90;;;;;;5035165;28;20095;-52
2022/12/01 00:17:57;;;;;;;87.60;38.22;;;6.60;99.90;;;;;;5052643;28;20420;-50
2022/12/01 00:20:23;;;;;;;81.28;38.28;;;6.60;99.90;;;;;;5052549;28;20048;-51
2022/12/01 00:22:49;;;;;;;82.45;37.40;;;6.70;99.90;;;;;;5051779;28;20049;-51
2022/12/01 00:25:17;;;;;;;85.88;40.90;;;6.60;99.90;;;;;;5052324;28;20049;-51
2022/12/01 00:27:47;;;;;;;78.10;37.45;;;6.60;99.90;;;;;;5052144;28;20045;-52
2022/12/01 00:30:13;;;;;;;81.95;38.25;;;6.50;99.90;;;;;;5052386;28;20654;-51
2022/12/01 00:32:38;;;;;;;84.72;39.53;;;6.50;99.90;;;;;;5052398;28;20048;-53
2022/12/01 00:35:06;;;;;;;81.15;37.72;;;6.50;99.90;;;;;;5034490;28;20378;-53
2022/12/01 00:37:33;;;;;;;88.45;38.10;;;6.40;99.90;;;;;;5052264;28;20124;-55
2022/12/01 00:39:59;;;;;;;79.72;39.13;;;6.60;99.90;;;;;;5052515;28;20044;-51
2022/12/01 00:42:26;;;;;;;81.45;37.45;;;6.50;99.90;;;;;;5052267;28;20049;-51
2022/12/01 00:44:51;;;;;;;78.97;36.30;;;6.60;99.90;;;;;;5052188;28;20501;-51
2022/12/01 00:47:17;;;;;;;80.72;36.22;;;6.70;99.90;;;;;;5034300;28;20041;-54
2022/12/01 00:49:46;;;;;;;86.22;38.10;;;6.50;99.90;;;;;;5052041;28;20095;-51
2022/12/01 00:52:13;;;;;;;87.10;38.20;;;6.70;99.90;;;;;;5034431;28;20052;-55
2022/12/01 00:54:39;;;;;;;83.75;39.35;;;6.50;99.90;;;;;;5052169;28;20040;-49
2022/12/01 00:57:05;;;;;;;90.57;40.20;;;6.50;99.90;;;;;;5040916;28;20048;-55
2022/12/01 00:59:30;;;;;;;84.70;39.15;;;6.50;99.90;;;;;;5032066;28;20099;-50
2022/12/01 01:01:56;;;;;;;88.32;39.33;;;6.70;99.90;;;;;;5031970;28;20109;-53
2022/12/01 01:04:22;;;;;;;87.57;41.47;;;6.50;99.90;;;;;;5014298;28;20116;-50
2022/12/01 01:06:48;;;;;;;78.18;37.67;;;6.50;99.90;;;;;;5032023;28;20076;-51
2022/12/01 01:09:15;;;;;;;89.70;39.65;;;6.50;99.90;;;;;;5032086;28;20033;-51
2022/12/01 01:11:41;;;;;;;82.97;39.25;;;6.50;99.90;;;;;;5031970;28;20084;-53
2022/12/01 01:14:07;;;;;;;86.85;39.95;;;6.40;99.90;;;;;;5031818;28;20096;-52
2022/12/01 01:16:33;;;;;;;84.30;40.08;;;6.40;99.90;;;;;;5031867;28;20095;-53
2022/12/01 01:18:59;;;;;;;90.75;40.00;;;6.60;99.90;;;;;;5032145;28;20124;-54
2022/12/01 01:21:26;;;;;;;88.75;40.60;;;6.60;99.90;;;;;;5031671;28;20100;-52
2022/12/01 01:23:53;;;;;;;91.28;39.88;;;6.40;99.90;;;;;;5031861;28;20057;-53
2022/12/01 01:26:20;;;;;;;82.85;41.17;;;6.40;99.90;;;;;;5031964;28;20405;-53
2022/12/01 01:28:47;;;;;;;88.20;40.60;;;6.50;99.90;;;;;;5031674;28;20037;-54
2022/12/01 01:31:16;;;;;;;89.85;40.47;;;6.60;99.90;;;;;;5031616;28;20042;-52
2022/12/01 01:33:42;;;;;;;87.88;40.90;;;6.60;99.90;;;;;;5031636;28;20061;-51
2022/12/01 01:36:08;;;;;;;91.70;40.97;;;6.50;99.90;;;;;;5035362;28;20045;-51
2022/12/01 01:38:35;;;;;;;83.68;38.63;;;6.60;99.90;;;;;;5035529;28;20037;-51
2022/12/01 01:41:02;;;;;;;82.93;38.30;;;6.60;99.90;;;;;;5035771;28;20076;-52
2022/12/01 01:43:43;;;;;;;89.30;41.92;;;6.50;99.90;;;;;;5035651;28;20106;-51
2022/12/01 01:46:17;;;;;;;93.55;41.03;;;6.60;99.90;;;;;;5035888;28;20052;-50
2022/12/01 01:48:48;;;;;;;85.05;40.63;;;6.60;99.90;;;;;;5035465;28;20831;-51
2022/12/01 01:51:16;;;;;;;90.65;41.00;;;6.60;99.90;;;;;;5035355;28;20045;-52
2022/12/01 01:53:44;;;;;;;91.65;43.35;;;6.60;99.90;;;;;;5035454;28;20049;-52
2022/12/01 01:56:10;;;;;;;94.47;44.55;;;6.60;99.90;;;;;;5038935;28;20036;-43
2022/12/01 01:58:37;;;;;;;87.70;42.75;;;6.60;99.90;;;;;;5055061;28;20220;-43
2022/12/01 02:01:04;;;;;;;96.43;43.08;;;6.60;99.90;;;;;;5055396;28;20047;-43
2022/12/01 02:03:30;;;;;;;84.30;41.30;;;6.40;99.90;;;;;;5055199;28;20056;-44
2022/12/01 02:05:57;;;;;;;91.78;40.38;;;6.40;99.90;;;;;;5037496;28;20049;-47
2022/12/01 02:08:22;;;;;;;84.72;38.15;;;6.50;99.90;;;;;;5037251;28;20040;-44
2022/12/01 02:11:09;;;;;;;89.20;41.30;;;6.40;99.90;;;;;;5037044;28;20044;-45
2022/12/01 02:14:04;;;;;;;86.28;38.75;;;6.40;99.90;;;;;;5054719;28;20513;-44
2022/12/01 02:16:51;;;;;;;85.30;39.45;;;6.40;99.90;;;;;;5037305;28;20400;-44
2022/12/01 02:19:20;;;;;;;83.25;38.90;;;6.50;99.90;;;;;;5054755;28;20098;-45
2022/12/01 02:22:02;;;;;;;89.57;40.08;;;6.40;99.90;;;;;;5054986;28;20067;-43
2022/12/01 02:25:05;;;;;;;83.20;38.55;;;6.50;99.90;;;;;;5054877;28;20053;-43
2022/12/01 02:27:50;;;;;;;88.72;40.53;;;6.50;99.90;;;;;;5054712;28;20049;-43
2022/12/01 02:30:39;;;;;;;85.95;38.65;;;6.50;99.90;;;;;;5054725;28;20120;-44
2022/12/01 02:33:22;;;;;;;90.88;39.42;;;6.40;99.90;;;;;;5054684;28;20102;-43
2022/12/01 02:36:02;;;;;;;86.57;39.65;;;6.40;99.90;;;;;;5054493;28;20072;-43
2022/12/01 02:38:51;;;;;;;86.75;39.92;;;6.30;99.90;;;;;;5054768;28;20378;-44
2022/12/01 02:41:31;;;;;;;83.28;39.05;;;6.30;99.90;;;;;;5054441;28;20045;-44
2022/12/01 02:44:26;;;;;;;83.82;37.70;;;6.30;99.90;;;;;;5054546;28;20088;-43
2022/12/01 02:47:10;;;;;;;84.85;38.08;;;6.30;99.90;;;;;;5035590;28;20123;-43
2022/12/01 02:49:41;;;;;;;84.18;37.08;;;6.40;99.90;;;;;;5054283;28;20152;-44
2022/12/01 02:52:09;;;;;;;87.63;39.28;;;6.40;99.90;;;;;;5054418;28;20049;-43
2022/12/01 02:54:35;;;;;;;86.03;42.65;;;6.50;99.90;;;;;;5054239;28;20044;-44
2022/12/01 02:57:01;;;;;;;83.22;38.33;;;6.40;99.90;;;;;;5025647;28;20051;-42
2022/12/01 02:59:27;;;;;;;86.53;39.53;;;6.40;99.90;;;;;;5034377;28;20478;-46
2022/12/01 03:02:12;;;;;;;90.53;39.88;;;6.50;99.90;;;;;;5034144;28;20044;-43
2022/12/01 03:04:44;;;;;;;84.90;38.13;;;6.40;99.90;;;;;;5033461;28;20057;-43
2022/12/01 03:07:45;;;;;;;87.43;38.93;;;6.30;99.90;;;;;;5034132;28;20045;-43
2022/12/01 03:10:37;;;;;;;90.88;39.65;;;6.60;99.90;;;;;;5033895;28;20041;-43
2022/12/01 03:13:17;;;;;;;83.50;39.40;;;6.40;99.90;;;;;;5028408;28;20054;-45
2022/12/01 03:16:01;;;;;;;90.18;42.15;;;6.20;99.90;;;;;;5034014;28;20069;-44
2022/12/01 03:18:42;;;;;;;87.15;38.70;;;6.30;99.90;;;;;;5034072;28;20033;-44
2022/12/01 03:21:20;;;;;;;87.35;40.67;;;6.30;99.90;;;;;;5033632;28;20057;-42
2022/12/01 03:24:15;;;;;;;88.53;39.70;;;6.50;99.90;;;;;;5033712;28;20075;-44
2022/12/01 03:26:45;;;;;;;87.97;38.92;;;6.30;99.90;;;;;;5015017;28;20136;-44
2022/12/01 03:29:24;;;;;;;82.32;38.70;;;6.40;99.90;;;;;;5033648;28;20072;-44
2022/12/01 03:32:18;;;;;;;81.85;37.05;;;6.40;99.90;;;;;;5033572;28;20051;-46
2022/12/01 03:34:50;;;;;;;88.05;39.80;;;6.40;99.90;;;;;;5032952;28;20049;-44
2022/12/01 03:37:36;;;;;;;80.17;37.70;;;6.40;99.90;;;;;;5015792;28;20056;-44
2022/12/01 03:40:06;;;;;;;81.97;36.80;;;6.20;99.90;;;;;;5033467;28;20533;-43
2022/12/01 03:42:37;;;;;;;87.55;38.78;;;6.20;99.90;;;;;;5033656;28;20084;-46
2022/12/01 03:45:29;;;;;;;79.70;37.87;;;6.30;99.90;;;;;;5015538;28;20077;-43
2022/12/01 03:47:56;;;;;;;86.63;39.15;;;6.50;99.90;;;;;;5027790;28;20560;-44
2022/12/01 03:50:46;;;;;;;81.55;38.20;;;6.20;99.90;;;;;;5033130;28;20513;-43
2022/12/01 03:53:24;;;;;;;79.43;37.10;;;6.40;99.90;;;;;;5032387;28;20053;-43
2022/12/01 03:55:54;;;;;;;85.40;39.08;;;6.40;99.90;;;;;;5034076;28;20164;-43
2022/12/01 03:58:26;;;;;;;83.22;38.47;;;6.20;99.90;;;;;;5053354;28;20045;-44
2022/12/01 04:00:56;;;;;;;85.15;40.33;;;6.30;99.90;;;;;;5052952;28;20102;-43
2022/12/01 04:03:24;;;;;;;90.25;39.38;;;6.30;99.90;;;;;;5052869;28;20103;-43
2022/12/01 04:05:50;;;;;;;88.30;38.22;;;6.50;99.90;;;;;;5018399;28;20063;-43
2022/12/01 04:08:16;;;;;;;85.53;38.22;;;6.20;99.90;;;;;;5053070;28;20040;-43
2022/12/01 04:10:42;;;;;;;84.63;39.58;;;6.40;99.90;;;;;;5052844;28;20044;-43
2022/12/01 04:13:15;;;;;;;83.68;38.28;;;6.50;99.90;;;;;;5035326;28;20350;-43
2022/12/01 04:15:41;;;;;;;88.85;40.40;;;6.30;99.90;;;;;;5052699;28;20394;-43
2022/12/01 04:18:06;;;;;;;90.60;41.60;;;6.30;99.90;;;;;;5052686;28;20191;-43
2022/12/01 04:20:32;;;;;;;82.90;40.45;;;6.40;99.90;;;;;;5052860;28;20116;-43
2022/12/01 04:22:58;;;;;;;84.55;38.45;;;6.40;99.90;;;;;;5053046;28;20053;-44
2022/12/01 04:25:23;;;;;;;81.90;38.10;;;6.30;99.90;;;;;;5052623;28;20057;-43
2022/12/01 04:27:49;;;;;;;87.65;37.88;;;6.30;99.90;;;;;;5052578;28;20128;-44
2022/12/01 04:30:15;;;;;;;88.93;40.22;;;6.30;99.90;;;;;;5052315;28;20131;-43
2022/12/01 04:32:42;;;;;;;81.63;38.13;;;6.50;99.90;;;;;;5052284;28;20566;-43
2022/12/01 04:35:10;;;;;;;84.47;40.20;;;6.50;99.90;;;;;;5052607;28;20143;-44
2022/12/01 04:37:36;;;;;;;88.97;40.15;;;6.50;99.90;;;;;;5034531;28;20047;-43
2022/12/01 04:40:02;;;;;;;87.07;39.97;;;6.30;99.90;;;;;;5052212;28;20041;-43
2022/12/01 04:42:28;;;;;;;82.00;39.33;;;6.30;99.90;;;;;;5052186;28;20044;-45
2022/12/01 04:44:54;;;;;;;84.70;36.65;;;6.50;99.90;;;;;;5052227;28;20456;-42
2022/12/01 04:47:20;;;;;;;85.70;37.60;;;6.40;99.90;;;;;;5034164;28;20095;-43
2022/12/01 04:49:45;;;;;;;89.88;40.00;;;6.40;99.90;;;;;;5052341;28;20048;-43
2022/12/01 04:52:11;;;;;;;82.05;37.28;;;6.30;99.90;;;;;;5052165;28;20076;-43
2022/12/01 04:54:36;;;;;;;84.82;40.00;;;6.40;99.90;;;;;;5052278;28;20033;-44
2022/12/01 04:57:02;;;;;;;81.78;39.47;;;6.40;99.90;;;;;;5041141;28;20033;-45
2022/12/01 04:59:28;;;;;;;81.65;39.72;;;6.20;99.90;;;;;;5031972;28;20045;-46
2022/12/01 05:01:54;;;;;;;82.90;38.25;;;6.40;99.90;;;;;;5032183;28;20041;-44
2022/12/01 05:04:19;;;;;;;76.90;37.15;;;6.20;99.90;;;;;;5032065;28;20077;-44
2022/12/01 05:06:45;;;;;;;76.97;36.33;;;6.30;99.90;;;;;;5032088;28;20043;-45
2022/12/01 05:09:15;;;;;;;83.20;37.42;;;6.10;99.90;;;;;;5014097;28;20037;-43
2022/12/01 05:11:40;;;;;;;80.70;39.28;;;6.10;99.90;;;;;;5031858;28;20038;-44
2022/12/01 05:14:06;;;;;;;87.97;40.05;;;6.20;99.90;;;;;;5031807;28;20049;-44
2022/12/01 05:16:32;;;;;;;82.15;37.38;;;6.10;99.90;;;;;;5032000;28;20030;-44
2022/12/01 05:21:47;;;;;;;73.80;36.42;;;5.80;99.90;;;;;;5031688;28;20092;-44
2022/12/01 05:24:13;;;;;;;77.03;36.58;;;5.80;99.90;;;;;;5031902;28;20049;-44
2022/12/01 05:26:40;;;;;;;80.50;35.60;;;5.60;99.90;;;;;;5031669;28;20076;-43
2022/12/01 05:29:07;;;;;;;78.40;34.78;;;5.70;99.90;;;;;;5014000;28;20049;-46
2022/12/01 05:31:33;;;;;;;77.50;35.10;;;5.50;99.90;;;;;;5031824;28;20050;-45
2022/12/01 05:33:59;;;;;;;81.05;38.17;;;5.60;99.90;;;;;;5031691;28;20049;-45
2022/12/01 05:36:25;;;;;;;74.80;33.85;;;5.50;99.90;;;;;;5031814;28;20451;-45
2022/12/01 05:38:50;;;;;;;76.82;36.22;;;5.50;99.90;;;;;;5031594;28;20034;-45
2022/12/01 05:41:16;;;;;;;72.75;33.38;;;5.30;99.90;;;;;;5031567;28;20073;-44
2022/12/01 05:43:41;;;;;;;68.75;32.92;;;5.40;99.90;;;;;;5014238;28;20081;-44
2022/12/01 05:46:07;;;;;;;77.88;36.55;;;5.20;99.90;;;;;;5031781;28;20042;-45
2022/12/01 05:48:33;;;;;;;81.07;35.03;;;5.30;99.90;;;;;;5031698;28;20041;-43
2022/12/01 05:50:59;;;;;;;73.57;33.55;;;5.10;99.90;;;;;;5013902;28;20120;-44
2022/12/01 05:53:25;;;;;;;71.50;34.30;;;5.10;99.90;;;;;;5031579;28;20132;-43
2022/12/01 05:55:52;;;;;;;63.22;31.73;;;5.00;99.90;;;;;;5032563;28;20116;-46
2022/12/01 05:58:17;;;;;;;69.70;32.03;;;4.90;99.90;;;;;;5051406;28;20028;-43
2022/12/01 06:00:43;;;;;;;69.20;30.42;;;5.00;99.90;;;;;;5051595;28;20041;-44
2022/12/01 06:03:09;;;;;;;63.65;29.27;;;4.80;99.90;;;;;;5033534;28;20504;-44
2022/12/01 06:05:34;;;;;;;71.47;30.33;;;4.90;99.90;;;;;;5051362;28;20044;-43
2022/12/01 06:08:00;;;;;;;62.72;27.73;;;4.90;99.90;;;;;;5051354;28;20044;-43
2022/12/01 06:10:26;;;;;;;56.67;27.05;;;4.70;99.90;;;;;;5051298;28;20037;-44
2022/12/01 06:12:51;;;;;;;59.30;27.63;;;4.80;99.90;;;;;;5051351;28;20080;-44
2022/12/01 06:15:17;;;;;;;57.67;26.52;;;4.80;99.90;;;;;;5051340;28;20378;-44
2022/12/01 06:17:43;;;;;;;55.60;25.85;;;4.70;99.90;;;;;;5051239;28;20037;-47
2022/12/01 06:20:09;;;;;;;57.70;24.23;;;4.80;99.90;;;;;;5051301;28;20119;-44
2022/12/01 06:22:35;;;;;;;53.55;25.48;;;4.70;99.90;;;;;;5035418;28;20057;-44
2022/12/01 06:25:02;;;;;;;49.10;23.77;;;4.70;99.90;;;;;;5054719;28;20110;-44
2022/12/01 06:27:27;;;;;;;54.22;24.35;;;4.60;99.90;;;;;;5054914;28;20041;-44
2022/12/01 06:29:53;;;;;;;51.75;23.85;;;4.70;99.90;;;;;;5054650;28;20359;-44
2022/12/01 06:32:19;;;;;;;49.00;22.08;;;4.60;99.90;;;;;;5054640;28;20041;-44
2022/12/01 06:34:44;;;;;;;46.15;22.08;;;4.70;99.90;;;;;;5054600;28;20029;-43
2022/12/01 06:37:10;;;;;;;41.65;20.88;;;4.50;99.90;;;;;;5036880;28;20524;-43
2022/12/01 06:39:36;;;;;;;44.67;21.67;;;4.60;99.90;;;;;;5054466;28;20116;-44
2022/12/01 06:42:02;;;;;;;42.35;21.30;;;4.60;99.90;;;;;;5054720;28;20105;-43
2022/12/01 06:44:28;;;;;;;44.85;21.58;;;4.50;99.90;;;;;;5054494;28;20040;-44
2022/12/01 06:46:56;;;;;;;38.38;18.75;;;4.60;99.90;;;;;;5054520;28;20045;-43
2022/12/01 06:49:21;;;;;;;38.70;20.42;;;4.40;99.90;;;;;;5036309;28;20040;-43
2022/12/01 06:51:48;;;;;;;34.83;16.17;;;4.50;99.90;;;;;;5054177;28;20437;-43
2022/12/01 06:54:16;;;;;;;30.73;15.25;;;4.40;99.90;;;;;;5054149;28;20086;-44
2022/12/01 06:56:42;;;;;;;27.73;14.57;;;4.30;99.90;;;;;;5028147;28;20090;-44
2022/12/01 06:59:09;;;;;;;28.00;13.07;;;4.40;99.90;;;;;;5034163;28;20037;-43
2022/12/01 07:01:34;;;;;;;19.73;10.38;;;4.40;99.90;;;;;;5034132;28;20509;-43
2022/12/01 07:04:00;;;;;;;24.52;11.98;;;4.40;99.90;;;;;;5034179;28;20072;-43
2022/12/01 07:06:28;;;;;;;21.77;10.38;;;4.30;99.90;;;;;;5034137;28;20096;-43
2022/12/01 07:08:54;;;;;;;19.00;8.95;;;4.20;99.90;;;;;;5033991;28;20044;-43
2022/12/01 07:11:19;;;;;;;17.83;10.18;;;4.40;99.90;;;;;;5034186;28;20041;-43
2022/12/01 07:13:45;;;;;;;19.40;9.43;;;4.30;99.90;;;;;;5033879;28;20498;-44
2022/12/01 07:16:11;;;;;;;17.95;8.93;;;4.20;99.90;;;;;;5034219;28;20083;-43
2022/12/01 07:18:37;;;;;;;16.92;7.80;;;4.20;99.90;;;;;;5033715;28;20046;-44
2022/12/01 07:21:06;;;;;;;17.50;9.00;;;4.10;99.90;;;;;;5033789;28;20076;-44
2022/12/01 07:23:32;;;;;;;17.95;8.32;;;4.10;99.90;;;;;;5033714;28;20057;-44
2022/12/01 07:26:06;;;;;;;18.42;8.88;;;4.10;99.90;;;;;;5033746;28;20057;-44
2022/12/01 07:28:32;;;;;;;19.60;9.50;;;4.10;99.90;;;;;;5033649;28;20045;-44
2022/12/01 07:31:06;;;;;;;22.60;10.57;;;4.10;99.90;;;;;;5033706;28;20041;-44
2022/12/01 07:33:32;;;;;;;25.27;11.27;;;4.10;99.90;;;;;;5015326;28;20045;-44
2022/12/01 07:35:58;;;;;;;23.50;11.13;;;4.00;99.90;;;;;;5033509;28;20037;-44
2022/12/01 07:38:25;;;;;;;23.25;10.52;;;4.00;99.90;;;;;;5033499;28;20520;-44
2022/12/01 07:40:51;;;;;;;23.77;10.60;;;4.10;99.90;;;;;;5033377;28;20045;-44
2022/12/01 07:43:17;;;;;;;25.90;11.75;;;4.00;99.90;;;;;;5033560;28;20042;-47
2022/12/01 07:45:42;;;;;;;20.02;10.55;;;4.10;99.90;;;;;;5015612;28;20084;-44
2022/12/01 07:48:08;;;;;;;20.30;10.60;;;4.00;99.90;;;;;;5033332;28;20083;-46
2022/12/01 07:50:34;;;;;;;23.67;11.15;;;4.10;99.90;;;;;;5033072;28;20119;-45
2022/12/01 07:52:59;;;;;;;23.33;10.25;;;4.00;99.90;;;;;;5033509;28;20052;-45
2022/12/01 07:55:25;;;;;;;20.40;10.43;;;4.10;99.90;;;;;;5033336;28;20044;-44
2022/12/01 07:57:50;;;;;;;23.80;9.88;;;4.10;99.90;;;;;;5050976;28;20040;-46
2022/12/01 08:00:16;;;;;;;19.73;9.70;;;4.10;99.90;;;;;;5035129;28;20040;-44
2022/12/01 08:02:42;;;;;;;22.15;10.77;;;4.00;99.90;;;;;;5052871;28;20404;-45
2022/12/01 08:05:08;;;;;;;22.00;10.30;;;4.10;99.90;;;;;;5052722;28;20045;-44
2022/12/01 08:07:33;;;;;;;22.67;10.88;;;4.20;99.90;;;;;;5053079;28;20076;-45
2022/12/01 08:09:59;;;;;;;19.73;10.55;;;4.20;99.90;;;;;;5052759;28;20052;-42
2022/12/01 08:12:25;;;;;;;21.10;11.23;;;4.20;99.90;;;;;;5052753;28;20055;-43
2022/12/01 08:14:50;;;;;;;24.63;10.20;;;4.30;99.90;;;;;;5052744;28;20039;-44
2022/12/01 08:17:16;;;;;;;21.08;10.23;;;4.10;99.90;;;;;;5052589;28;20037;-46
2022/12/01 08:19:41;;;;;;;20.52;10.38;;;4.20;99.90;;;;;;5052941;28;20079;-43
2022/12/01 08:22:07;;;;;;;27.20;11.32;;;4.20;99.90;;;;;;5052706;28;20128;-43
2022/12/01 08:24:33;;;;;;;22.88;11.68;;;4.30;99.90;;;;;;5034953;28;20120;-43
2022/12/01 08:26:58;;;;;;;22.92;10.70;;;4.20;99.90;;;;;;5052709;28;20040;-43
2022/12/01 08:29:24;;;;;;;19.20;9.32;;;4.30;99.90;;;;;;5052474;28;20044;-44
2022/12/01 08:31:50;;;;;;;20.70;10.55;;;4.30;99.90;;;;;;5052555;28;20163;-45
2022/12/01 08:34:16;;;;;;;20.35;11.10;;;4.40;99.90;;;;;;5052350;28;20405;-44
2022/12/01 08:36:42;;;;;;;22.60;11.60;;;4.40;99.90;;;;;;5052567;28;20052;-45
2022/12/01 08:39:07;;;;;;;23.63;10.98;;;4.50;99.90;;;;;;5052522;28;20048;-44
2022/12/01 08:41:33;;;;;;;24.17;11.43;;;4.50;99.90;;;;;;5052291;28;20041;-43
2022/12/01 08:43:59;;;;;;;19.27;10.18;;;4.50;99.90;;;;;;5051746;28;20048;-43
2022/12/01 08:46:27;;;;;;;17.52;8.65;;;4.60;99.90;;;;;;5052149;28;20462;-43
2022/12/01 08:48:53;;;;;;;17.30;8.00;;;4.60;99.90;;;;;;5052792;28;20055;-43
2022/12/01 08:51:19;;;;;;;16.52;7.90;;;4.80;99.90;;;;;;5052210;28;20033;-43
2022/12/01 08:53:47;;;;;;;14.10;7.10;;;4.80;99.90;;;;;;5052090;28;20045;-44
2022/12/01 08:56:15;;;;;;;16.20;7.25;;;4.80;99.90;;;;;;5047672;28;20525;-44
2022/12/01 08:58:41;;;;;;;15.85;7.20;;;4.80;99.90;;;;;;5032614;28;20080;-43
2022/12/01 09:01:10;;;;;;;13.90;6.75;;;4.70;99.90;;;;;;5032053;28;20041;-45
2022/12/01 09:03:37;;;;;;;20.98;11.88;;;4.90;99.90;;;;;;5032184;28;20435;-43
2022/12/01 09:06:07;;;;;;;20.48;11.32;;;5.00;99.90;;;;;;5031829;28;20042;-43
2022/12/01 09:08:34;;;;;;;22.40;12.48;;;4.90;99.90;;;;;;5014591;28;20120;-43
2022/12/01 09:11:05;;;;;;;23.67;12.85;;;4.90;99.90;;;;;;5031933;28;20041;-42
2022/12/01 09:13:33;;;;;;;17.80;9.38;;;5.00;99.90;;;;;;5031908;28;20087;-42
2022/12/01 09:16:04;;;;;;;15.50;7.85;;;5.00;99.90;;;;;;5031882;28;20037;-44
2022/12/01 09:18:31;;;;;;;17.83;8.50;;;5.20;99.90;;;;;;5032095;28;20049;-45
2022/12/01 09:20:57;;;;;;;16.67;8.32;;;5.20;99.90;;;;;;5031882;28;20528;-43
2022/12/01 09:23:23;;;;;;;16.17;7.88;;;5.30;99.90;;;;;;5031855;28;20077;-44
2022/12/01 09:25:50;;;;;;;14.43;7.53;;;5.30;99.90;;;;;;5031913;28;20099;-45
2022/12/01 09:28:19;;;;;;;19.45;8.98;;;5.40;99.90;;;;;;5031990;28;20049;-44
2022/12/01 09:30:45;;;;;;;16.35;8.35;;;5.50;99.90;;;;;;5032134;28;20128;-44
2022/12/01 09:33:12;;;;;;;18.25;8.82;;;5.50;99.90;;;;;;5031969;28;20076;-43
2022/12/01 09:35:38;;;;;;;16.85;7.55;;;5.60;99.90;;;;;;5031856;28;20049;-42
2022/12/01 09:38:04;;;;;;;17.90;8.35;;;5.70;99.90;;;;;;5032244;28;20389;-42
2022/12/01 09:40:41;;;;;;;22.52;12.27;;;5.70;99.90;;;;;;5031595;28;20052;-42
2022/12/01 09:43:32;;;;;;;23.88;13.00;;;5.80;99.90;;;;;;5031745;28;20394;-43
2022/12/01 09:46:06;;;;;;;17.55;9.00;;;5.90;99.90;;;;;;5031808;28;20045;-42
2022/12/01 09:48:42;;;;;;;18.20;8.60;;;5.90;99.90;;;;;;5031767;28;20045;-44
2022/12/01 09:51:23;;;;;;;18.35;9.30;;;6.00;99.90;;;;;;5031477;28;20037;-42
2022/12/01 09:53:51;;;;;;;16.83;8.23;;;6.00;99.90;;;;;;5031702;28;20038;-43
2022/12/01 09:56:24;;;;;;;15.45;8.15;;;6.00;99.90;;;;;;5038329;28;20065;-43
2022/12/01 09:58:56;;;;;;;16.38;8.15;;;6.00;99.90;;;;;;5055375;28;20033;-43
2022/12/01 10:01:36;;;;;;;15.52;7.13;;;6.10;99.90;;;;;;5055265;28;20052;-44
2022/12/01 10:04:24;;;;;;;14.10;7.07;;;6.10;99.90;;;;;;5055517;28;20051;-44
2022/12/01 10:07:21;;;;;;;17.95;8.05;;;6.20;99.90;;;;;;5055319;28;20113;-45
2022/12/01 10:09:56;;;;;;;18.02;7.70;;;6.20;99.90;;;;;;5055161;28;20057;-43
2022/12/01 10:12:27;;;;;;;16.75;7.35;;;6.20;99.90;;;;;;5055376;28;20389;-44
2022/12/01 10:15:00;;;;;;;13.85;6.65;;;6.30;99.90;;;;;;5055311;28;20037;-44
2022/12/01 10:17:40;;;;;;;17.35;8.18;;;6.40;99.90;;;;;;5054983;28;20045;-45
2022/12/01 10:20:17;;;;;;;17.88;8.07;;;6.40;99.90;;;;;;5055003;28;20112;-43
2022/12/01 10:23:06;;;;;;;16.55;8.50;;;6.40;99.90;;;;;;5054675;28;20087;-43
2022/12/01 10:26:13;;;;;;;18.75;10.15;;;6.50;99.90;;;;;;5037230;28;20052;-43
2022/12/01 10:28:48;;;;;;;17.98;9.20;;;6.60;99.90;;;;;;4973607;28;20476;-43
2022/12/01 10:31:26;;;;;;;21.05;10.98;;;6.60;99.90;;;;;;5046338;28;20170;-45
2022/12/01 10:34:03;;;;;;;19.65;9.95;;;6.60;99.90;;;;;;5054918;28;20056;-44
2022/12/01 10:36:31;;;;;;;21.30;10.45;;;6.80;99.90;;;;;;5054681;28;20037;-44
2022/12/01 10:38:56;;;;;;;22.92;11.48;;;6.80;99.90;;;;;;5036778;28;20048;-43
2022/12/01 10:41:26;;;;;;;21.83;10.55;;;6.80;99.90;;;;;;5054483;28;20049;-45
2022/12/01 10:43:58;;;;;;;19.58;9.90;;;6.90;99.90;;;;;;5054468;28;20048;-45
2022/12/01 10:46:42;;;;;;;18.98;10.50;;;6.90;99.90;;;;;;5054576;28;20063;-44
2022/12/01 10:49:11;;;;;;;19.42;11.20;;;7.10;99.90;;;;;;5054551;28;20044;-44
2022/12/01 10:51:56;;;;;;;21.05;10.13;;;7.10;99.90;;;;;;5054231;28;20040;-44
2022/12/01 10:54:31;;;;;;;22.58;11.77;;;7.20;99.90;;;;;;5054470;28;20044;-44
2022/12/01 10:56:57;;;;;;;24.38;11.20;;;7.20;99.90;;;;;;5044142;28;20044;-44
2022/12/01 10:59:31;;;;;;;23.55;11.13;;;7.20;99.90;;;;;;5034182;28;20046;-46
2022/12/01 11:01:58;;;;;;;21.77;11.45;;;7.30;99.90;;;;;;5034170;28;20045;-44
2022/12/01 11:04:49;;;;;;;18.75;10.27;;;7.40;99.90;;;;;;5034206;28;20042;-43
2022/12/01 11:07:18;;;;;;;22.30;10.82;;;7.40;99.90;;;;;;5033410;28;20128;-44
2022/12/01 11:09:47;;;;;;;22.55;11.18;;;7.40;99.90;;;;;;5034210;28;20060;-44
2022/12/01 11:12:16;;;;;;;21.05;11.38;;;7.50;99.90;;;;;;5033928;28;20041;-44
2022/12/01 11:14:49;;;;;;;21.15;10.50;;;7.50;99.90;;;;;;5033957;28;20134;-43
2022/12/01 11:17:15;;;;;;;21.08;11.65;;;7.60;99.90;;;;;;5034066;28;20045;-43
2022/12/01 11:19:41;;;;;;;21.80;11.02;;;7.60;99.90;;;;;;5033934;28;20034;-45
2022/12/01 11:22:39;;;;;;;22.00;10.63;;;7.70;99.90;;;;;;5033764;28;20564;-45
2022/12/01 11:25:17;;;;;;;20.98;11.45;;;7.70;99.90;;;;;;4969129;28;20053;-43
2022/12/01 11:27:56;;;;;;;21.40;12.00;;;7.70;99.90;;;;;;5034040;28;20068;-43
2022/12/01 11:30:28;;;;;;;25.55;13.60;;;7.90;99.90;;;;;;5033737;28;20103;-42
2022/12/01 11:32:56;;;;;;;27.13;14.60;;;7.80;99.90;;;;;;5033739;28;20089;-44
2022/12/01 11:35:26;;;;;;;31.50;15.32;;;7.90;99.90;;;;;;5033911;28;20045;-43
2022/12/01 11:37:55;;;;;;;30.48;15.60;;;7.90;99.90;;;;;;5033595;28;20551;-43
2022/12/01 11:40:27;;;;;;;32.20;16.40;;;7.80;99.90;;;;;;5033791;28;20441;-44
2022/12/01 11:42:56;;;;;;;36.38;19.33;;;7.70;99.90;;;;;;5015892;28;20041;-43
2022/12/01 11:45:48;;;;;;;33.05;16.33;;;7.60;99.90;;;;;;5033468;28;20412;-43
2022/12/01 11:48:24;;;;;;;35.83;16.90;;;7.50;99.90;;;;;;5028208;28;20199;-43
2022/12/01 11:51:05;;;;;;;34.65;18.23;;;7.50;99.90;;;;;;5033251;28;20485;-43
2022/12/01 11:53:38;;;;;;;34.58;16.88;;;7.40;99.90;;;;;;5033315;28;20038;-43
2022/12/01 11:56:22;;;;;;;34.22;17.55;;;7.30;99.90;;;;;;5036190;28;20477;-43
2022/12/01 11:58:52;;;;;;;34.85;18.63;;;7.30;99.90;;;;;;5053251;28;20041;-45
2022/12/01 12:01:45;;;;;;;35.47;17.58;;;7.30;99.90;;;;;;5019078;28;20462;-43
2022/12/01 12:04:37;;;;;;;36.35;18.40;;;7.30;99.90;;;;;;5053006;28;20055;-43
2022/12/01 12:07:24;;;;;;;35.13;19.38;;;7.30;99.90;;;;;;5035030;28;20053;-43
2022/12/01 12:09:59;;;;;;;40.30;19.05;;;7.30;99.90;;;;;;5052824;28;20460;-44
2022/12/01 12:12:42;;;;;;;32.78;17.27;;;7.30;99.90;;;;;;5052821;28;20037;-44
2022/12/01 12:15:22;;;;;;;33.17;16.85;;;7.30;99.90;;;;;;5052755;28;20041;-44
2022/12/01 12:18:25;;;;;;;35.03;18.48;;;7.40;99.90;;;;;;5052797;28;20041;-44
2022/12/01 12:21:16;;;;;;;38.03;19.30;;;7.30;99.90;;;;;;5034245;28;20043;-45
2022/12/01 12:24:08;;;;;;;36.10;19.17;;;7.40;99.90;;;;;;5052375;28;20057;-44
2022/12/01 12:26:39;;;;;;;;;;;7.50;99.90;;;;;;5053541;28;20063;-44
2022/12/01 12:29:28;;;;;;;42.20;19.25;;;7.40;99.90;;;;;;5052435;28;19963;-45
2022/12/01 12:32:12;;;;;;;42.25;20.98;;;7.40;99.90;;;;;;5052687;28;20045;-43
2022/12/01 12:35:16;;;;;;;43.22;21.95;;;7.30;99.90;;;;;;5052469;28;20045;-45
2022/12/01 12:37:58;;;;;;;41.65;20.35;;;7.20;99.90;;;;;;5011411;28;20132;-44
2022/12/01 12:40:39;;;;;;;40.45;21.08;;;7.20;99.90;;;;;;5052288;28;20489;-43
2022/12/01 12:43:20;;;;;;;45.97;22.90;;;7.20;99.90;;;;;;5052249;28;20140;-45
2022/12/01 12:46:10;;;;;;;42.58;20.75;;;7.10;99.90;;;;;;5052218;28;20056;-43
2022/12/01 12:49:03;;;;;;;44.03;20.90;;;7.10;99.90;;;;;;5052058;28;20047;-43
2022/12/01 12:51:41;;;;;;;42.25;21.83;;;7.20;99.90;;;;;;5052182;28;20037;-43
2022/12/01 12:54:22;;;;;;;45.55;22.25;;;7.20;99.90;;;;;;5052143;28;20047;-44
2022/12/01 12:56:53;;;;;;;43.92;22.15;;;7.30;99.90;;;;;;5042943;28;20559;-44
2022/12/01 12:59:32;;;;;;;41.55;21.80;;;7.20;99.90;;;;;;5032386;28;20063;-44
2022/12/01 13:02:40;;;;;;;44.88;22.15;;;7.30;99.90;;;;;;5014770;28;20453;-44